Millersburg, Missouri
Current Conditions -  °F | °C
As of 3:14 PM on Sunday 23 Nov 2014 (Local Time) from KCOU Reporting Station
Haze Haze  
Wind Chill: 54°   Ceiling: 300
Heat Index: 54°   Visibility: 3mi
Dew Point: 54°   Wind: 6mph
Humidity: 100%   Direction: 150°SSE
Pressure: 29.34"   Gusts: NA
Location:  38.8555°N, 91.9568°W
Report Text: KCOU 232114Z 15005KT 3SM BR OVC003 12/12 A2934 RMK AO2 T01220122 $
Loading
Personal Weather Stations






























Interactive Weather Map New forecast layout! Learn more

10-Day Weather Forecast

Advertisements
Track Severe Weather on mobile